Time;durP1;ratioP1;P1;durP2;ratioP2;P2;SDS_P1;SDS_P2;PMS_P1;PMS_P2;Temp;Humidity;BMP_temperature;BMP_pressure;BME280_temperature;BME280_humidity;BME280_pressure;Samples;Min_cycle;Max_cycle;Signal;HPM_P1;HPM_P2
2023/10/28 00:01:23;;;;;;;6.88;2.03;;;18.20;91.60;;;;;;4915088;29;20476;-76
2023/10/28 00:03:49;;;;;;;4.90;1.33;;;18.20;91.40;;;;;;4916764;29;20119;-76
2023/10/28 00:06:15;;;;;;;6.82;1.48;;;18.20;91.40;;;;;;4917188;29;20024;-76
2023/10/28 00:08:40;;;;;;;7.80;1.80;;;18.20;91.40;;;;;;4917142;29;20036;-76
2023/10/28 00:11:07;;;;;;;4.45;1.23;;;18.10;91.40;;;;;;4915396;29;20091;-77
2023/10/28 00:13:33;;;;;;;7.18;2.00;;;18.10;91.40;;;;;;4925943;29;20141;-76
2023/10/28 00:15:59;;;;;;;7.18;1.42;;;18.10;91.30;;;;;;4914789;29;20107;-74
2023/10/28 00:18:24;;;;;;;5.85;1.73;;;18.10;91.60;;;;;;4920884;29;20066;-74
2023/10/28 00:20:50;;;;;;;5.97;1.58;;;18.10;91.30;;;;;;4919580;29;20358;-74
2023/10/28 00:23:16;;;;;;;6.90;1.90;;;18.10;91.30;;;;;;4922734;29;20067;-76
2023/10/28 00:25:42;;;;;;;8.32;1.60;;;18.10;91.30;;;;;;4916827;29;20036;-76
2023/10/28 00:28:09;;;;;;;3.63;0.90;;;18.10;91.30;;;;;;4924509;29;20091;-83
2023/10/28 00:30:39;;;;;;;5.45;1.55;;;18.10;91.40;;;;;;4926295;29;20137;-83
2023/10/28 00:33:04;;;;;;;3.13;1.20;;;18.10;91.40;;;;;;4924934;29;20067;-82
2023/10/28 00:35:30;;;;;;;3.75;0.93;;;18.10;91.30;;;;;;4921443;29;20427;-82
2023/10/28 00:37:57;;;;;;;4.03;1.20;;;18.10;91.30;;;;;;4904029;29;20051;-82
2023/10/28 00:40:28;;;;;;;3.83;1.02;;;18.10;91.30;;;;;;4921522;29;20372;-81
2023/10/28 00:42:54;;;;;;;5.43;1.65;;;18.10;91.10;;;;;;4916080;29;20032;-82
2023/10/28 00:45:19;;;;;;;6.88;1.80;;;18.10;91.00;;;;;;4916209;29;20024;-82
2023/10/28 00:47:48;;;;;;;3.83;1.15;;;18.10;90.90;;;;;;4922300;29;20029;-81
2023/10/28 00:50:15;;;;;;;6.20;1.80;;;18.10;91.00;;;;;;4899997;29;20051;-83
2023/10/28 00:52:47;;;;;;;7.43;1.60;;;18.10;91.00;;;;;;4927350;29;20377;-83
2023/10/28 00:55:13;;;;;;;7.45;1.42;;;18.10;90.90;;;;;;4916670;29;20055;-83
2023/10/28 00:57:41;;;;;;;5.40;1.40;;;18.10;91.00;;;;;;4922565;29;20113;-83
2023/10/28 01:00:07;;;;;;;3.70;1.38;;;18.10;90.90;;;;;;4916614;29;20039;-83
2023/10/28 01:02:35;;;;;;;5.25;1.50;;;18.10;90.90;;;;;;4915931;29;20121;-84
2023/10/28 01:05:02;;;;;;;6.65;1.70;;;18.00;90.90;;;;;;4916458;29;20099;-83
2023/10/28 01:07:29;;;;;;;4.38;1.08;;;18.00;90.90;;;;;;4899200;29;20376;-83
2023/10/28 01:09:55;;;;;;;8.38;2.17;;;18.10;91.00;;;;;;4916715;29;20027;-83
2023/10/28 01:12:23;;;;;;;3.60;1.38;;;18.00;91.00;;;;;;4916164;29;20024;-83
2023/10/28 01:14:50;;;;;;;4.40;1.02;;;18.00;91.10;;;;;;4918247;29;20032;-83
2023/10/28 01:17:16;;;;;;;4.63;1.17;;;18.00;91.10;;;;;;4915831;29;20067;-82
2023/10/28 01:19:42;;;;;;;3.92;1.10;;;18.00;91.20;;;;;;4912732;29;20049;-83
2023/10/28 01:22:08;;;;;;;4.15;1.05;;;18.00;91.10;;;;;;4925660;29;20035;-82
2023/10/28 01:24:35;;;;;;;3.58;0.95;;;18.00;90.90;;;;;;4916715;29;20545;-83
2023/10/28 01:27:01;;;;;;;5.97;1.58;;;18.00;90.90;;;;;;4918238;29;20039;-83
2023/10/28 01:29:28;;;;;;;4.45;1.10;;;18.00;90.90;;;;;;4901283;29;20052;-84
2023/10/28 01:31:54;;;;;;;4.22;0.98;;;18.00;91.00;;;;;;4907496;29;20442;-81
2023/10/28 01:34:22;;;;;;;6.05;1.40;;;18.00;90.80;;;;;;4906872;29;20067;-81
2023/10/28 01:36:49;;;;;;;4.90;1.20;;;17.90;90.80;;;;;;4898558;29;20061;-80
2023/10/28 01:39:18;;;;;;;4.30;1.23;;;17.90;91.00;;;;;;4903880;29;20029;-80
2023/10/28 01:41:43;;;;;;;5.53;1.15;;;17.90;90.90;;;;;;4906221;29;20048;-80
2023/10/28 01:44:11;;;;;;;5.00;1.13;;;17.90;90.70;;;;;;4905703;29;20124;-76
2023/10/28 01:46:37;;;;;;;3.85;0.70;;;17.90;90.80;;;;;;4904597;29;20029;-76
2023/10/28 01:49:03;;;;;;;10.18;1.58;;;17.90;90.80;;;;;;4908859;29;20028;-76
2023/10/28 01:51:28;;;;;;;7.47;1.50;;;17.90;90.70;;;;;;4902342;29;20115;-76
2023/10/28 01:53:55;;;;;;;5.50;1.10;;;17.90;90.60;;;;;;4909969;29;20338;-76
2023/10/28 01:56:20;;;;;;;3.53;1.15;;;17.90;90.70;;;;;;4906409;29;20119;-76
2023/10/28 01:58:46;;;;;;;5.43;1.50;;;17.90;90.70;;;;;;4895759;29;20193;-77
2023/10/28 02:01:12;;;;;;;6.25;1.33;;;17.90;90.70;;;;;;4902689;29;20041;-77
2023/10/28 02:03:37;;;;;;;3.63;1.23;;;17.90;90.90;;;;;;4899891;29;20386;-77
2023/10/28 02:06:05;;;;;;;4.25;0.95;;;17.90;90.90;;;;;;4902377;29;20029;-77
2023/10/28 02:08:31;;;;;;;3.95;1.08;;;17.80;90.90;;;;;;4901288;29;20094;-75
2023/10/28 02:10:57;;;;;;;3.30;0.80;;;17.80;90.90;;;;;;4908007;29;20576;-76
2023/10/28 02:13:24;;;;;;;7.03;0.95;;;17.80;90.90;;;;;;4905622;29;20365;-82
2023/10/28 02:15:50;;;;;;;5.25;1.30;;;17.80;90.90;;;;;;4908089;29;20523;-82
2023/10/28 02:18:18;;;;;;;5.28;1.25;;;17.80;91.10;;;;;;4893556;29;20413;-82
2023/10/28 02:20:44;;;;;;;8.10;1.35;;;17.80;91.20;;;;;;4910157;29;20041;-82
2023/10/28 02:23:13;;;;;;;5.85;1.40;;;17.80;91.20;;;;;;4904078;29;20029;-83
2023/10/28 02:25:41;;;;;;;2.00;0.93;;;17.70;91.20;;;;;;4901523;29;20467;-82
2023/10/28 02:28:08;;;;;;;5.55;1.27;;;17.70;91.20;;;;;;4909369;29;20101;-84
2023/10/28 02:30:39;;;;;;;4.57;1.13;;;17.60;91.30;;;;;;4901158;29;20020;-83
2023/10/28 02:33:06;;;;;;;3.83;0.98;;;17.60;91.40;;;;;;4905420;29;20491;-83
2023/10/28 02:35:32;;;;;;;5.40;1.70;;;17.60;91.40;;;;;;4899010;29;20036;-84
2023/10/28 02:37:58;;;;;;;3.53;1.20;;;17.60;91.40;;;;;;4904910;29;20028;-83
2023/10/28 02:40:24;;;;;;;6.43;1.08;;;17.60;91.50;;;;;;4910320;29;20036;-83
2023/10/28 02:42:49;;;;;;;6.00;1.58;;;17.50;91.70;;;;;;4918984;29;20046;-83
2023/10/28 02:45:15;;;;;;;5.18;1.50;;;17.50;91.80;;;;;;4905407;29;20109;-83
2023/10/28 02:47:41;;;;;;;4.80;1.10;;;17.50;91.90;;;;;;4900784;29;20532;-83
2023/10/28 02:50:08;;;;;;;3.72;1.15;;;17.40;92.00;;;;;;4914177;29;20061;-82
2023/10/28 02:52:34;;;;;;;6.32;1.25;;;17.40;92.00;;;;;;4900248;29;20031;-82
2023/10/28 02:54:59;;;;;;;6.88;1.20;;;17.40;92.10;;;;;;4899590;29;20123;-81
2023/10/28 02:57:25;;;;;;;7.28;1.27;;;17.30;92.10;;;;;;4902636;29;20043;-81
2023/10/28 02:59:51;;;;;;;5.68;0.98;;;17.30;92.30;;;;;;4913184;29;20041;-82
2023/10/28 03:02:16;;;;;;;7.13;1.10;;;17.30;92.30;;;;;;4883563;29;20120;-82
2023/10/28 03:04:42;;;;;;;6.68;1.55;;;17.30;92.30;;;;;;4898594;29;20045;-81
2023/10/28 03:07:08;;;;;;;6.20;1.50;;;17.30;92.40;;;;;;4899609;29;20050;-82
2023/10/28 03:09:34;;;;;;;7.15;1.20;;;17.30;92.40;;;;;;4902009;29;20040;-82
2023/10/28 03:11:59;;;;;;;4.82;1.20;;;17.30;92.40;;;;;;4900371;29;20028;-82
2023/10/28 03:14:25;;;;;;;6.28;1.50;;;17.30;92.50;;;;;;4910606;29;20044;-82
2023/10/28 03:16:51;;;;;;;3.05;1.23;;;17.20;92.50;;;;;;4902474;29;20029;-82
2023/10/28 03:19:16;;;;;;;8.15;1.48;;;17.20;92.60;;;;;;4904238;29;20037;-82
2023/10/28 03:21:42;;;;;;;3.75;1.25;;;17.20;92.60;;;;;;4901510;29;20037;-81
2023/10/28 03:24:08;;;;;;;5.97;1.02;;;17.20;92.60;;;;;;4911261;29;20039;-82
2023/10/28 03:26:34;;;;;;;5.50;1.30;;;17.20;92.60;;;;;;4900616;29;20511;-81
2023/10/28 03:28:59;;;;;;;6.05;1.48;;;17.10;92.70;;;;;;4912856;29;20174;-81
2023/10/28 03:31:26;;;;;;;2.70;1.10;;;17.10;92.70;;;;;;4925284;29;20024;-81
2023/10/28 03:33:52;;;;;;;3.50;0.98;;;17.10;92.70;;;;;;4927030;29;20119;-82
2023/10/28 03:36:18;;;;;;;5.38;1.17;;;17.10;92.70;;;;;;4919175;29;20028;-82
2023/10/28 03:38:45;;;;;;;4.47;1.27;;;17.10;92.60;;;;;;4920750;29;20511;-82
2023/10/28 03:41:11;;;;;;;3.92;1.30;;;17.10;92.80;;;;;;4924766;29;20020;-81
2023/10/28 03:43:43;;;;;;;5.05;1.20;;;17.10;92.80;;;;;;4915327;29;20024;-81
2023/10/28 03:46:18;;;;;;;4.65;1.60;;;17.10;92.90;;;;;;4919845;29;20059;-81
2023/10/28 03:48:44;;;;;;;2.50;1.23;;;17.00;93.00;;;;;;4918984;29;20031;-82
2023/10/28 03:51:10;;;;;;;4.43;1.17;;;17.00;93.10;;;;;;4926433;29;20028;-82
2023/10/28 03:53:36;;;;;;;4.28;1.30;;;17.00;93.20;;;;;;4919721;29;20083;-82
2023/10/28 03:56:02;;;;;;;4.88;1.15;;;16.90;93.10;;;;;;4926642;29;20083;-82
2023/10/28 03:58:28;;;;;;;4.18;1.20;;;16.90;93.20;;;;;;4919245;29;20062;-83
2023/10/28 04:00:54;;;;;;;6.30;1.40;;;16.90;93.30;;;;;;4927501;29;20055;-83
2023/10/28 04:03:23;;;;;;;8.13;1.48;;;16.90;93.40;;;;;;4925644;29;20074;-83
2023/10/28 04:05:50;;;;;;;7.40;1.60;;;16.90;93.50;;;;;;4921347;29;20031;-84
2023/10/28 04:08:16;;;;;;;3.75;1.27;;;16.90;93.50;;;;;;4918468;29;20024;-84
2023/10/28 04:10:42;;;;;;;5.25;1.42;;;16.90;93.40;;;;;;4925771;29;20035;-83
2023/10/28 04:13:08;;;;;;;7.07;1.20;;;16.90;93.10;;;;;;4927061;29;20072;-83
2023/10/28 04:15:36;;;;;;;3.55;1.05;;;16.90;92.90;;;;;;4911065;29;20040;-82
2023/10/28 04:18:02;;;;;;;4.95;0.90;;;16.90;92.70;;;;;;4922937;29;20036;-82
2023/10/28 04:20:28;;;;;;;5.05;1.42;;;16.80;92.60;;;;;;4922693;29;20480;-83
2023/10/28 04:22:53;;;;;;;5.25;1.40;;;16.80;92.50;;;;;;4922555;29;20032;-83
2023/10/28 04:25:19;;;;;;;4.13;1.42;;;16.80;92.50;;;;;;4917568;29;20028;-83
2023/10/28 04:27:45;;;;;;;3.67;1.00;;;16.80;92.60;;;;;;4921202;29;20056;-83
2023/10/28 04:30:11;;;;;;;5.40;1.77;;;16.70;92.60;;;;;;4923997;29;20070;-83
2023/10/28 04:32:38;;;;;;;3.25;1.42;;;16.70;92.70;;;;;;4922600;29;20035;-84
2023/10/28 04:35:05;;;;;;;4.20;1.20;;;16.60;92.80;;;;;;4909122;29;20032;-83
2023/10/28 04:37:32;;;;;;;5.00;1.75;;;16.60;92.80;;;;;;4929020;29;20039;-83
2023/10/28 04:39:57;;;;;;;8.32;1.17;;;16.60;92.90;;;;;;4918370;29;20044;-83
2023/10/28 04:42:23;;;;;;;7.15;1.23;;;16.50;92.90;;;;;;4916547;29;20039;-83
2023/10/28 04:44:49;;;;;;;3.88;1.00;;;16.50;93.00;;;;;;4915427;29;20503;-84
2023/10/28 04:47:14;;;;;;;4.78;1.35;;;16.50;93.20;;;;;;4928592;29;20086;-82
2023/10/28 04:49:41;;;;;;;4.20;1.40;;;16.50;93.30;;;;;;4932019;29;20035;-82
2023/10/28 04:52:08;;;;;;;5.07;1.02;;;16.50;93.20;;;;;;4919699;29;20024;-82
2023/10/28 04:54:34;;;;;;;2.63;0.95;;;16.50;93.20;;;;;;4921136;29;20079;-82
2023/10/28 04:57:02;;;;;;;5.78;2.15;;;16.50;93.10;;;;;;4926014;29;20044;-83
2023/10/28 04:59:29;;;;;;;4.78;1.50;;;16.40;93.20;;;;;;4916699;29;20649;-84
2023/10/28 05:01:55;;;;;;;6.63;1.58;;;16.40;93.20;;;;;;4918910;29;20158;-84
2023/10/28 05:04:23;;;;;;;6.30;1.83;;;16.40;93.20;;;;;;4918444;29;20048;-84
2023/10/28 05:06:49;;;;;;;4.03;1.45;;;16.40;93.30;;;;;;4919299;29;20430;-82
2023/10/28 05:09:15;;;;;;;4.65;1.80;;;16.40;93.30;;;;;;4914353;29;20028;-84
2023/10/28 05:11:42;;;;;;;2.95;1.33;;;16.40;93.30;;;;;;4903814;29;20050;-84
2023/10/28 05:14:09;;;;;;;3.20;1.20;;;16.40;93.30;;;;;;4926536;29;20036;-84
2023/10/28 05:16:35;;;;;;;5.63;1.70;;;16.40;93.40;;;;;;4920425;29;20016;-84
2023/10/28 05:19:01;;;;;;;4.88;1.88;;;16.40;93.40;;;;;;4916622;29;20095;-84
2023/10/28 05:21:27;;;;;;;4.10;1.52;;;16.40;93.50;;;;;;4930667;29;20024;-84
2023/10/28 05:23:52;;;;;;;8.95;1.98;;;16.30;93.50;;;;;;4925631;29;20468;-80
2023/10/28 05:26:18;;;;;;;3.92;1.02;;;16.30;93.50;;;;;;4912958;29;20028;-81
2023/10/28 05:28:46;;;;;;;5.28;1.40;;;16.30;93.50;;;;;;4920194;29;20139;-81
2023/10/28 05:31:12;;;;;;;4.82;1.20;;;16.40;93.50;;;;;;4921757;29;20023;-79
2023/10/28 05:33:39;;;;;;;8.02;1.75;;;16.40;93.50;;;;;;4920920;29;20039;-80
2023/10/28 05:36:06;;;;;;;3.50;1.42;;;16.30;93.40;;;;;;4915963;29;20099;-80
2023/10/28 05:38:31;;;;;;;4.70;1.65;;;16.30;93.40;;;;;;4927769;29;20032;-80
2023/10/28 05:40:57;;;;;;;6.07;1.73;;;16.30;93.30;;;;;;4928668;29;20035;-81
2023/10/28 05:43:23;;;;;;;12.77;2.47;;;16.30;93.50;;;;;;4914898;29;20043;-80
2023/10/28 05:45:49;;;;;;;6.20;1.98;;;16.20;93.40;;;;;;4919460;29;20036;-80
2023/10/28 05:48:14;;;;;;;7.53;2.22;;;16.30;93.40;;;;;;4925103;29;20585;-81
2023/10/28 05:50:40;;;;;;;9.88;1.80;;;16.20;93.40;;;;;;4913812;29;20119;-84
2023/10/28 05:53:06;;;;;;;6.88;2.13;;;16.20;93.50;;;;;;4921433;29;20024;-82
2023/10/28 05:55:31;;;;;;;5.40;1.63;;;16.20;93.50;;;;;;4933222;29;20471;-82
2023/10/28 05:57:57;;;;;;;5.20;1.60;;;16.20;93.40;;;;;;4927013;29;20047;-82
2023/10/28 06:00:23;;;;;;;5.63;1.58;;;16.20;93.40;;;;;;4921309;29;20035;-87
2023/10/28 06:02:49;;;;;;;6.53;1.77;;;16.20;93.50;;;;;;4919955;29;20040;-88
2023/10/28 06:05:15;;;;;;;4.18;1.40;;;16.10;93.40;;;;;;4901915;29;20032;-89
2023/10/28 06:07:47;;;;;;;5.75;1.58;;;16.10;93.50;;;;;;4931500;29;20151;-89
2023/10/28 06:10:15;;;;;;;2.90;1.38;;;16.10;93.70;;;;;;4914308;29;20023;-88
2023/10/28 06:12:41;;;;;;;3.67;1.40;;;16.10;93.60;;;;;;4919233;29;20552;-88
2023/10/28 06:15:08;;;;;;;5.70;1.60;;;16.10;93.60;;;;;;4929746;29;20032;-88
2023/10/28 06:17:35;;;;;;;2.63;1.50;;;16.20;93.90;;;;;;4923256;29;20039;-88
2023/10/28 06:20:01;;;;;;;5.90;1.83;;;16.20;93.60;;;;;;4919004;29;20028;-90
2023/10/28 06:22:26;;;;;;;5.00;1.40;;;16.20;93.60;;;;;;4919662;29;20383;-90
2023/10/28 06:24:54;;;;;;;8.93;2.10;;;16.20;93.60;;;;;;4920786;29;20032;-86
2023/10/28 06:27:22;;;;;;;4.07;1.38;;;16.20;93.80;;;;;;4919577;29;20119;-89
2023/10/28 06:29:47;;;;;;;5.68;1.80;;;16.20;93.90;;;;;;4907320;29;20036;-87
2023/10/28 06:32:13;;;;;;;3.63;1.30;;;16.20;93.80;;;;;;4928341;29;20082;-88
2023/10/28 06:34:39;;;;;;;7.00;1.80;;;16.20;93.70;;;;;;4924347;29;20571;-88
2023/10/28 06:37:04;;;;;;;5.65;1.98;;;16.30;93.90;;;;;;4901678;29;20032;-86
2023/10/28 06:39:33;;;;;;;8.02;2.05;;;16.30;93.80;;;;;;4919358;29;20115;-87
2023/10/28 06:42:01;;;;;;;3.75;1.67;;;16.30;93.80;;;;;;4932793;29;20031;-87
2023/10/28 06:44:27;;;;;;;12.60;2.92;;;16.30;93.90;;;;;;4937727;29;20369;-87
2023/10/28 06:46:52;;;;;;;5.88;1.80;;;16.30;93.90;;;;;;4926533;29;20042;-87
2023/10/28 06:49:18;;;;;;;8.23;1.98;;;16.40;93.90;;;;;;4906494;29;20035;-87
2023/10/28 06:51:44;;;;;;;6.00;2.10;;;16.40;94.00;;;;;;4934918;29;20059;-83
2023/10/28 06:54:10;;;;;;;13.15;2.10;;;16.40;93.90;;;;;;4919823;29;20036;-82
2023/10/28 06:56:36;;;;;;;6.70;2.30;;;16.50;94.00;;;;;;4926156;29;20040;-82
2023/10/28 06:59:01;;;;;;;4.55;2.05;;;16.50;94.00;;;;;;4927950;29;20024;-82
2023/10/28 07:01:27;;;;;;;5.38;2.20;;;16.60;94.00;;;;;;4930861;29;20439;-83
2023/10/28 07:03:57;;;;;;;6.07;2.17;;;16.60;94.00;;;;;;4923919;29;20062;-82
2023/10/28 07:06:22;;;;;;;6.63;1.83;;;16.70;94.00;;;;;;4901853;29;20107;-86
2023/10/28 07:08:48;;;;;;;7.93;2.05;;;16.70;94.00;;;;;;4924933;29;20476;-86
2023/10/28 07:11:14;;;;;;;5.80;2.13;;;16.80;94.00;;;;;;4923945;29;20040;-87
2023/10/28 07:13:40;;;;;;;5.00;2.03;;;16.80;93.90;;;;;;4911014;29;20050;-86
2023/10/28 07:16:06;;;;;;;5.15;1.98;;;16.80;93.80;;;;;;4921189;29;20120;-82
2023/10/28 07:18:33;;;;;;;6.22;2.17;;;16.90;94.00;;;;;;4924461;29;20035;-82
2023/10/28 07:21:02;;;;;;;7.25;2.05;;;16.90;93.70;;;;;;4915750;29;20036;-83
2023/10/28 07:23:30;;;;;;;5.60;1.85;;;16.90;93.70;;;;;;4916750;29;20374;-82
2023/10/28 07:26:01;;;;;;;5.28;2.13;;;16.90;93.70;;;;;;4917304;29;20044;-82
2023/10/28 07:28:33;;;;;;;7.07;2.55;;;17.00;93.80;;;;;;4900096;29;20139;-82
2023/10/28 07:31:00;;;;;;;7.53;2.33;;;17.00;93.70;;;;;;4934279;29;20484;-83
2023/10/28 07:33:26;;;;;;;6.43;2.42;;;17.00;93.70;;;;;;4936413;29;20035;-82
2023/10/28 07:35:52;;;;;;;6.53;2.33;;;17.00;93.60;;;;;;4919675;29;20036;-82
2023/10/28 07:38:18;;;;;;;6.50;2.42;;;17.10;93.60;;;;;;4914616;29;20039;-82
2023/10/28 07:40:44;;;;;;;5.93;1.67;;;17.20;93.50;;;;;;4920829;29;20032;-83
2023/10/28 07:43:14;;;;;;;6.80;2.22;;;17.20;93.40;;;;;;4913518;29;20028;-83
2023/10/28 07:45:41;;;;;;;6.70;1.95;;;17.30;93.40;;;;;;4909345;29;20036;-82
2023/10/28 07:48:07;;;;;;;5.47;1.55;;;17.30;93.20;;;;;;4916698;29;20039;-82
2023/10/28 07:50:40;;;;;;;5.80;2.13;;;17.40;93.10;;;;;;4925903;29;20032;-83
2023/10/28 07:53:06;;;;;;;4.55;1.80;;;17.50;93.00;;;;;;4927293;29;20031;-83
2023/10/28 07:55:33;;;;;;;5.65;1.92;;;17.60;93.00;;;;;;4917635;29;20031;-83
2023/10/28 07:57:58;;;;;;;9.55;2.00;;;17.70;92.90;;;;;;4917606;29;20036;-82
2023/10/28 08:00:26;;;;;;;5.65;1.88;;;17.80;92.80;;;;;;4920499;29;20130;-80
2023/10/28 08:02:52;;;;;;;5.28;1.92;;;17.90;92.70;;;;;;4915692;29;20042;-78
2023/10/28 08:05:19;;;;;;;7.93;1.75;;;18.00;92.50;;;;;;4929396;29;20066;-78
2023/10/28 08:07:47;;;;;;;10.70;2.33;;;18.20;92.40;;;;;;4912555;29;20035;-79
2023/10/28 08:10:14;;;;;;;5.78;2.50;;;18.30;92.30;;;;;;4910291;29;20029;-81
2023/10/28 08:12:40;;;;;;;7.95;2.22;;;18.40;92.10;;;;;;4909938;29;20024;-79
2023/10/28 08:15:10;;;;;;;7.78;2.22;;;18.50;91.60;;;;;;4930298;29;20044;-80
2023/10/28 08:17:35;;;;;;;4.90;1.77;;;18.50;91.80;;;;;;4925632;29;20032;-82
2023/10/28 08:20:03;;;;;;;6.68;1.73;;;18.70;92.00;;;;;;4909442;29;20090;-81
2023/10/28 08:22:29;;;;;;;5.60;2.15;;;18.80;91.90;;;;;;4917029;29;20044;-86
2023/10/28 08:24:55;;;;;;;4.93;1.80;;;19.00;91.80;;;;;;4915778;29;20069;-86
2023/10/28 08:27:21;;;;;;;8.82;2.45;;;19.10;91.70;;;;;;4917666;29;20032;-86
2023/10/28 08:29:48;;;;;;;5.65;1.92;;;19.20;91.50;;;;;;4900330;29;20182;-85
2023/10/28 08:32:17;;;;;;;4.72;1.83;;;19.30;91.20;;;;;;4900882;29;20024;-86
2023/10/28 08:34:43;;;;;;;7.83;2.00;;;19.50;91.20;;;;;;4917621;29;20036;-86
2023/10/28 08:37:10;;;;;;;7.10;1.98;;;19.60;91.10;;;;;;4900481;29;20043;-86
2023/10/28 08:39:36;;;;;;;5.22;2.30;;;19.70;91.20;;;;;;4916503;29;20036;-86
2023/10/28 08:42:05;;;;;;;7.80;2.20;;;19.90;91.00;;;;;;4899449;29;20039;-85
2023/10/28 08:44:34;;;;;;;5.57;2.00;;;20.00;90.80;;;;;;4914463;29;20076;-85
2023/10/28 08:47:06;;;;;;;8.07;2.38;;;20.20;90.60;;;;;;4917589;29;20048;-83
2023/10/28 08:49:35;;;;;;;5.05;1.70;;;20.30;90.20;;;;;;4924146;29;20064;-83
2023/10/28 08:52:02;;;;;;;6.18;2.38;;;20.40;90.20;;;;;;4912955;29;20031;-83
2023/10/28 08:54:29;;;;;;;5.32;1.88;;;20.60;90.30;;;;;;4916974;29;20044;-83
2023/10/28 08:56:59;;;;;;;7.78;1.77;;;20.70;90.10;;;;;;4917407;29;20035;-84
2023/10/28 08:59:26;;;;;;;5.90;2.40;;;20.80;89.90;;;;;;4909386;29;20029;-82
2023/10/28 09:01:52;;;;;;;5.25;2.42;;;21.00;89.60;;;;;;4916413;29;20036;-83
2023/10/28 09:04:21;;;;;;;4.53;2.38;;;21.20;89.50;;;;;;4926090;29;20099;-83
2023/10/28 09:06:48;;;;;;;7.82;2.78;;;21.30;89.00;;;;;;4915482;29;20038;-83
2023/10/28 09:09:17;;;;;;;6.15;2.22;;;21.40;88.80;;;;;;4916127;29;20392;-84
2023/10/28 09:11:42;;;;;;;5.25;1.98;;;21.50;88.40;;;;;;4924400;29;20043;-83
2023/10/28 09:14:09;;;;;;;5.00;2.53;;;21.60;87.90;;;;;;4910952;29;20021;-84
2023/10/28 09:16:35;;;;;;;7.00;2.40;;;21.70;87.80;;;;;;4917848;29;20039;-84
2023/10/28 09:19:03;;;;;;;6.00;2.30;;;21.80;87.40;;;;;;4915499;29;20036;-84
2023/10/28 09:21:30;;;;;;;4.75;2.05;;;22.00;87.20;;;;;;4909447;29;20024;-83
2023/10/28 09:24:02;;;;;;;7.85;2.15;;;22.00;86.80;;;;;;4919350;29;20067;-83
2023/10/28 09:26:29;;;;;;;5.53;2.25;;;22.20;87.00;;;;;;4910925;29;20374;-84
2023/10/28 09:28:55;;;;;;;4.65;2.28;;;22.30;86.70;;;;;;4920730;29;20044;-88
2023/10/28 09:31:24;;;;;;;7.38;2.08;;;22.40;86.60;;;;;;4920942;29;20502;-86
2023/10/28 09:33:51;;;;;;;6.70;2.45;;;22.60;85.80;;;;;;4920576;29;20028;-85
2023/10/28 09:36:18;;;;;;;5.70;1.83;;;22.60;85.40;;;;;;4920632;29;20024;-85
2023/10/28 09:38:45;;;;;;;6.75;2.50;;;22.80;85.70;;;;;;4920255;29;20059;-84
2023/10/28 09:41:12;;;;;;;6.38;2.33;;;22.90;84.70;;;;;;4920703;29;20118;-85
2023/10/28 09:43:38;;;;;;;6.95;2.42;;;22.90;84.90;;;;;;4919230;29;20032;-86
2023/10/28 09:46:05;;;;;;;8.48;2.42;;;23.00;84.30;;;;;;4920242;29;20082;-83
2023/10/28 09:48:33;;;;;;;6.70;2.28;;;23.00;83.70;;;;;;4920382;29;20112;-83
2023/10/28 09:50:59;;;;;;;8.98;3.53;;;22.90;83.50;;;;;;4920003;29;20032;-83
2023/10/28 09:53:35;;;;;;;5.30;2.22;;;22.90;83.30;;;;;;4923134;29;20028;-83
2023/10/28 09:56:02;;;;;;;3.17;1.98;;;23.10;84.70;;;;;;4907960;29;20036;-83
2023/10/28 09:58:51;;;;;;;8.82;2.55;;;23.30;84.90;;;;;;4919022;29;20111;-83
2023/10/28 10:01:35;;;;;;;7.32;2.50;;;23.40;84.10;;;;;;4919132;29;20496;-83
2023/10/28 10:04:38;;;;;;;4.63;2.15;;;23.50;83.90;;;;;;4903115;29;20040;-85
2023/10/28 10:07:04;;;;;;;13.95;2.95;;;23.70;83.90;;;;;;4919437;29;20463;-83
2023/10/28 10:09:43;;;;;;;10.13;2.78;;;23.80;83.40;;;;;;4920133;29;20119;-87
2023/10/28 10:12:10;;;;;;;10.38;2.20;;;23.90;81.10;;;;;;4902585;29;20036;-88
2023/10/28 10:14:39;;;;;;;5.30;1.73;;;23.90;83.60;;;;;;4919936;29;20028;-89
2023/10/28 10:17:24;;;;;;;7.17;2.77;;;24.10;82.50;;;;;;4920222;29;20020;-88
2023/10/28 10:19:49;;;;;;;6.00;2.35;;;24.20;80.80;;;;;;4902903;29;20063;-89
2023/10/28 10:22:30;;;;;;;8.27;2.90;;;24.20;80.80;;;;;;4920015;29;20043;-89
2023/10/28 10:24:56;;;;;;;9.30;2.00;;;24.30;80.20;;;;;;4919423;29;20029;-89
2023/10/28 10:27:36;;;;;;;8.32;2.72;;;24.40;81.30;;;;;;4928687;29;20028;-86
2023/10/28 10:30:09;;;;;;;7.63;2.65;;;24.50;77.90;;;;;;4917769;29;20074;-89
2023/10/28 10:32:48;;;;;;;8.65;2.17;;;24.50;79.40;;;;;;4902419;29;20037;-88
2023/10/28 10:35:32;;;;;;;7.27;2.60;;;24.50;79.90;;;;;;4926976;29;20028;-88
2023/10/28 10:38:07;;;;;;;7.55;2.63;;;24.70;80.20;;;;;;4919299;29;20040;-88
2023/10/28 10:40:47;;;;;;;7.05;3.08;;;24.80;80.20;;;;;;4919086;29;20488;-88
2023/10/28 10:43:21;;;;;;;10.10;2.92;;;24.90;79.20;;;;;;4918757;29;20036;-88
2023/10/28 10:45:48;;;;;;;10.70;2.42;;;25.00;79.60;;;;;;4918803;29;20047;-86
2023/10/28 10:48:15;;;;;;;8.20;3.35;;;25.10;79.40;;;;;;4919253;29;20107;-86
2023/10/28 10:50:40;;;;;;;10.52;3.33;;;25.30;79.40;;;;;;4920983;29;20020;-85
2023/10/28 10:53:06;;;;;;;7.38;2.33;;;25.40;79.30;;;;;;4936663;29;20092;-86
2023/10/28 10:55:32;;;;;;;6.18;2.80;;;25.60;78.60;;;;;;4918914;29;20035;-85
2023/10/28 10:57:58;;;;;;;8.25;2.78;;;25.80;78.60;;;;;;4919170;29;20036;-86
2023/10/28 11:00:24;;;;;;;6.50;2.95;;;25.90;77.80;;;;;;4918768;29;20080;-85
2023/10/28 11:02:53;;;;;;;7.68;3.30;;;26.00;76.80;;;;;;4918752;29;20036;-85
2023/10/28 11:05:19;;;;;;;13.88;3.83;;;26.00;76.60;;;;;;4917993;29;20031;-85
2023/10/28 11:07:45;;;;;;;8.23;2.97;;;26.10;76.90;;;;;;4918312;29;20119;-87
2023/10/28 11:10:12;;;;;;;8.85;3.47;;;26.20;77.00;;;;;;4933234;29;20028;-86
2023/10/28 11:12:38;;;;;;;7.75;3.15;;;26.40;76.80;;;;;;4937748;29;20032;-89
2023/10/28 11:15:06;;;;;;;7.82;3.13;;;26.60;76.00;;;;;;4926896;29;20100;-88
2023/10/28 11:17:32;;;;;;;6.47;3.13;;;26.70;74.60;;;;;;4919112;29;20032;-81
2023/10/28 11:20:03;;;;;;;7.90;2.97;;;26.70;73.90;;;;;;4912704;29;20039;-80
2023/10/28 11:22:29;;;;;;;7.40;2.72;;;26.80;73.90;;;;;;4900209;29;20036;-80
2023/10/28 11:25:00;;;;;;;5.57;2.30;;;27.00;72.40;;;;;;4926418;29;20032;-80
2023/10/28 11:27:27;;;;;;;7.45;2.67;;;27.60;72.50;;;;;;4911765;29;20180;-81
2023/10/28 11:29:53;;;;;;;8.13;2.90;;;28.60;69.60;;;;;;4923702;29;20031;-80
2023/10/28 11:32:19;;;;;;;11.38;4.45;;;29.60;68.80;;;;;;4921553;29;20038;-85
2023/10/28 11:34:46;;;;;;;8.07;3.25;;;30.70;68.20;;;;;;4924071;29;20029;-85
2023/10/28 11:37:12;;;;;;;5.65;2.38;;;31.60;65.70;;;;;;4926275;29;20046;-85
2023/10/28 11:39:39;;;;;;;4.88;2.50;;;32.40;63.60;;;;;;4928268;29;20035;-86
2023/10/28 11:42:18;;;;;;;7.25;2.55;;;33.10;61.60;;;;;;4924512;29;20047;-86
2023/10/28 11:44:49;;;;;;;6.38;2.58;;;33.70;59.70;;;;;;4929170;29;20177;-85
2023/10/28 11:47:15;;;;;;;5.30;2.45;;;34.00;58.10;;;;;;4925665;29;20437;-85
2023/10/28 11:49:41;;;;;;;7.15;2.53;;;34.00;57.60;;;;;;4926675;29;20456;-84
2023/10/28 11:52:11;;;;;;;6.78;1.90;;;34.10;57.00;;;;;;4923940;29;20524;-86
2023/10/28 11:54:37;;;;;;;6.67;2.77;;;34.40;55.90;;;;;;4917767;29;20039;-85
2023/10/28 11:57:03;;;;;;;7.93;2.28;;;34.80;54.60;;;;;;4917397;29;20036;-85
2023/10/28 11:59:28;;;;;;;4.40;1.80;;;35.00;52.30;;;;;;4917204;29;20519;-86
2023/10/28 12:01:54;;;;;;;7.53;2.38;;;35.20;52.70;;;;;;4916286;29;20028;-86
2023/10/28 12:04:23;;;;;;;3.97;1.60;;;35.40;52.60;;;;;;4910412;29;20028;-86
2023/10/28 12:06:49;;;;;;;7.67;2.37;;;35.50;52.60;;;;;;4912746;29;20024;-84
2023/10/28 12:09:14;;;;;;;4.97;1.88;;;35.50;51.60;;;;;;4914649;29;20103;-85
2023/10/28 12:11:41;;;;;;;6.63;2.05;;;35.60;51.70;;;;;;4917527;29;20110;-87
2023/10/28 12:14:07;;;;;;;7.90;1.98;;;35.40;50.70;;;;;;4907428;29;20055;-85
2023/10/28 12:16:38;;;;;;;5.40;1.73;;;35.10;50.40;;;;;;4912069;29;20512;-86
2023/10/28 12:19:07;;;;;;;3.35;1.30;;;34.80;50.40;;;;;;4916692;29;20115;-85
2023/10/28 12:21:34;;;;;;;5.57;1.90;;;34.40;49.80;;;;;;4917692;29;20035;-83
2023/10/28 12:24:00;;;;;;;4.97;1.70;;;34.00;50.80;;;;;;4923091;29;20072;-85
2023/10/28 12:26:26;;;;;;;4.10;1.75;;;33.80;50.80;;;;;;4914601;29;20099;-85
2023/10/28 12:28:52;;;;;;;3.92;2.03;;;33.50;50.80;;;;;;4905113;29;20496;-80
2023/10/28 12:31:24;;;;;;;3.13;1.27;;;33.30;51.20;;;;;;4921648;29;20056;-78
2023/10/28 12:33:51;;;;;;;5.22;1.30;;;33.20;51.40;;;;;;4916267;29;20493;-77
2023/10/28 12:36:17;;;;;;;7.20;1.70;;;33.10;51.60;;;;;;4925065;29;20098;-78
2023/10/28 12:38:44;;;;;;;3.75;1.40;;;33.20;51.20;;;;;;4914894;29;20126;-78
2023/10/28 12:41:11;;;;;;;5.05;1.52;;;33.40;50.40;;;;;;4912168;29;20040;-78
2023/10/28 12:43:37;;;;;;;5.13;1.42;;;33.50;49.70;;;;;;4915442;29;20398;-78
2023/10/28 12:46:03;;;;;;;6.13;1.50;;;33.60;50.10;;;;;;4921050;29;20028;-77